Dati Storici

Data ora Umidita' aria (%) Temperatura aria (°C) Rad globale (W/m²) Gonioanemometro (°) Tacoanemometro (m/s) Pioggia (mm)
07-06-2020 20:10 97.8 % 16.04 -76.42 2.94 0 0
07-06-2020 20:00 97.8 % 16.233 -77.632 3.613 0 0
07-06-2020 19:50 97.8 % 16.17 -81.997 4.554 0 0
07-06-2020 19:40 97.9 % 16.468 -78.802 2.351 0 0
07-06-2020 19:30 97.9 % 16.536 -77.272 0.849 0 0
07-06-2020 19:20 97.9 % 16.54 -72.924 1.983 0 0
07-06-2020 19:10 97.9 % 16.476 -70.748 5.507 0 0
07-06-2020 19:00 97.9 % 16.471 -72.301 4.097 0 0
07-06-2020 18:50 97.8 % 16.408 -73.995 5.275 0 0
07-06-2020 18:40 97.9 % 16.472 -73.493 6.201 0 0
07-06-2020 18:30 97.8 % 16.542 -72.186 3.049 0 0
07-06-2020 18:20 97.8 % 16.641 -79.158 3.813 0 0
07-06-2020 18:10 97.8 % 16.942 -72.735 1.276 0 0
07-06-2020 18:00 97.8 % 17.097 -37.381 3.388 0 0
07-06-2020 17:50 97.7 % 17.316 -73.636 1.952 0 0
07-06-2020 17:40 96.2 % 18.02 -78.087 4.835 0 0
07-06-2020 17:30 90.3 % 19.391 -73.824 3.822 0 0
07-06-2020 17:20 92.2 % 19.425 -52.551 0.859 0 0
07-06-2020 17:10 92.7 % 18.539 -64.255 5.716 0 0
07-06-2020 17:00 97.6 % 18.678 -71.583 1.732 0 0

I dati sono presentati in modo automatico a scopo informativo. In seguito a verifica i dati possono subire modifiche o essere invalidati e non riportati negli archivi definitivi.